Time;durP1;ratioP1;P1;durP2;ratioP2;P2;SDS_P1;SDS_P2;PMS_P1;PMS_P2;Temp;Humidity;BMP_temperature;BMP_pressure;BME280_temperature;BME280_humidity;BME280_pressure;Samples;Min_cycle;Max_cycle;Signal;HPM_P1;HPM_P2
2022/04/11 00:00:06;;;;;;;4.72;1.15;;;0.90;99.90;;;;;;5068605;28;20105;-65
2022/04/11 00:02:32;;;;;;;3.75;1.60;;;0.80;99.90;;;;;;5063275;28;20141;-65
2022/04/11 00:04:57;;;;;;;8.48;1.60;;;0.80;99.90;;;;;;5088129;28;20140;-65
2022/04/11 00:07:23;;;;;;;4.32;1.17;;;0.80;99.90;;;;;;5091218;28;20085;-65
2022/04/11 00:09:50;;;;;;;6.82;1.40;;;0.80;99.90;;;;;;5109436;28;20672;-65
2022/04/11 00:12:16;;;;;;;4.35;1.60;;;0.80;99.90;;;;;;5110486;28;20043;-65
2022/04/11 00:14:41;;;;;;;2.80;1.35;;;0.70;99.90;;;;;;5090369;28;20261;-65
2022/04/11 00:17:08;;;;;;;2.63;1.33;;;0.70;99.90;;;;;;5092188;28;20104;-66
2022/04/11 00:19:34;;;;;;;3.53;1.15;;;0.70;99.90;;;;;;5103910;28;20040;-65
2022/04/11 00:22:00;;;;;;;4.95;1.38;;;0.70;99.90;;;;;;5072307;28;20052;-66
2022/04/11 00:24:26;;;;;;;5.05;1.50;;;0.70;99.90;;;;;;5070683;28;20036;-65
2022/04/11 00:26:51;;;;;;;5.22;1.88;;;0.60;99.90;;;;;;5071534;28;20467;-65
2022/04/11 00:29:17;;;;;;;1.50;1.35;;;0.60;99.90;;;;;;5054354;28;20089;-65
2022/04/11 00:31:43;;;;;;;6.18;1.75;;;0.60;99.90;;;;;;5097902;28;20039;-65
2022/04/11 00:34:09;;;;;;;3.28;1.35;;;0.60;99.90;;;;;;5110074;28;20050;-65
2022/04/11 00:36:35;;;;;;;2.38;1.92;;;0.60;99.90;;;;;;5108248;28;20039;-65
2022/04/11 00:39:00;;;;;;;7.72;1.90;;;0.60;99.90;;;;;;5092239;28;20070;-65
2022/04/11 00:41:26;;;;;;;1.90;1.40;;;0.60;99.90;;;;;;5096758;28;20040;-65
2022/04/11 00:43:52;;;;;;;5.18;1.90;;;0.60;99.90;;;;;;5089214;28;20402;-66
2022/04/11 00:46:17;;;;;;;5.60;1.77;;;0.60;99.90;;;;;;5088225;28;20039;-66
2022/04/11 00:48:44;;;;;;;2.60;1.45;;;0.60;99.90;;;;;;5070469;28;20151;-66
2022/04/11 00:51:19;;;;;;;3.70;1.60;;;0.60;99.90;;;;;;5090587;28;20047;-65
2022/04/11 00:53:46;;;;;;;4.05;1.75;;;0.50;99.90;;;;;;5087438;28;20052;-66
2022/04/11 00:56:15;;;;;;;7.60;1.63;;;0.50;99.90;;;;;;5071410;28;20056;-66
2022/04/11 00:58:41;;;;;;;5.28;2.10;;;0.40;99.90;;;;;;5052231;28;20154;-65
2022/04/11 01:01:09;;;;;;;3.13;2.08;;;0.40;99.90;;;;;;5098465;28;20070;-65
2022/04/11 01:03:35;;;;;;;3.55;1.90;;;0.50;99.90;;;;;;5106883;28;20040;-65
2022/04/11 01:06:02;;;;;;;4.80;1.80;;;0.50;99.90;;;;;;5091127;28;20590;-65
2022/04/11 01:08:28;;;;;;;6.07;1.75;;;0.50;99.90;;;;;;5091422;28;20043;-65
2022/04/11 01:10:54;;;;;;;9.18;2.05;;;0.40;99.90;;;;;;5089640;28;20889;-65
2022/04/11 01:13:20;;;;;;;7.55;2.15;;;0.40;99.90;;;;;;5108452;28;20031;-66
2022/04/11 01:16:12;;;;;;;5.25;1.75;;;0.40;99.90;;;;;;5069144;28;21003;-65
2022/04/11 01:18:39;;;;;;;3.85;1.75;;;0.40;99.90;;;;;;5084185;28;20106;-66
2022/04/11 01:21:08;;;;;;;7.10;2.05;;;0.30;99.90;;;;;;5069973;28;20050;-65
2022/04/11 01:23:34;;;;;;;2.78;1.73;;;0.30;99.90;;;;;;5087828;28;20513;-65
2022/04/11 01:26:00;;;;;;;2.42;1.67;;;0.30;99.90;;;;;;5089095;28;20079;-65
2022/04/11 01:28:27;;;;;;;6.57;2.00;;;0.30;99.90;;;;;;5089913;28;20481;-66
2022/04/11 01:30:55;;;;;;;6.13;1.77;;;0.30;99.90;;;;;;5108868;28;20044;-65
2022/04/11 01:33:25;;;;;;;2.47;1.85;;;0.20;99.90;;;;;;5089454;28;20581;-65
2022/04/11 01:35:51;;;;;;;3.05;2.15;;;0.20;99.90;;;;;;5094125;28;20069;-65
2022/04/11 01:38:17;;;;;;;3.42;1.45;;;0.20;99.90;;;;;;5069377;28;20046;-65
2022/04/11 01:40:54;;;;;;;6.57;1.80;;;0.20;99.90;;;;;;5052823;28;20048;-65
2022/04/11 01:43:20;;;;;;;7.97;2.20;;;0.10;99.90;;;;;;5088642;28;20043;-66
2022/04/11 01:45:46;;;;;;;3.25;1.77;;;0.20;99.90;;;;;;5087520;28;20036;-65
2022/04/11 01:48:12;;;;;;;2.40;1.52;;;0.20;99.90;;;;;;5088689;28;20036;-65
2022/04/11 01:50:38;;;;;;;2.30;1.70;;;0.30;99.90;;;;;;5067709;28;20044;-65
2022/04/11 01:53:11;;;;;;;3.33;1.60;;;0.20;99.90;;;;;;5053562;28;20130;-65
2022/04/11 01:55:37;;;;;;;5.03;1.95;;;0.20;99.90;;;;;;5087841;28;20056;-65
2022/04/11 01:58:05;;;;;;;6.63;1.73;;;0.20;99.90;;;;;;5087898;28;20485;-65
2022/04/11 02:00:31;;;;;;;4.20;1.83;;;0.20;99.90;;;;;;5075669;28;20044;-65
2022/04/11 02:03:00;;;;;;;2.67;1.50;;;0.20;99.90;;;;;;5105107;28;20040;-66
2022/04/11 02:05:27;;;;;;;4.60;1.90;;;0.10;99.90;;;;;;5108586;28;20053;-65
2022/04/11 02:07:54;;;;;;;6.03;1.98;;;0.10;99.90;;;;;;5104567;28;20097;-66
2022/04/11 02:10:19;;;;;;;8.48;1.73;;;0.10;99.90;;;;;;5108293;28;20047;-65
2022/04/11 02:12:47;;;;;;;3.88;1.92;;;0.10;99.90;;;;;;5088352;28;20171;-65
2022/04/11 02:15:13;;;;;;;4.95;2.10;;;0.10;99.90;;;;;;5108020;28;20126;-65
2022/04/11 02:17:39;;;;;;;4.30;1.92;;;0.10;99.90;;;;;;5070432;28;20031;-65
2022/04/11 02:20:06;;;;;;;2.70;1.92;;;0.00;99.90;;;;;;5071964;28;20045;-66
2022/04/11 02:22:48;;;;;;;4.13;1.40;;;0.10;99.90;;;;;;5107516;28;20043;-65
2022/04/11 02:25:16;;;;;;;3.10;1.98;;;0.10;99.90;;;;;;5106537;28;20044;-66
2022/04/11 02:27:43;;;;;;;4.80;1.50;;;0.10;99.90;;;;;;5065554;28;20048;-65
2022/04/11 02:30:09;;;;;;;5.68;1.75;;;0.10;99.90;;;;;;5067370;28;20048;-65
2022/04/11 02:32:35;;;;;;;7.18;1.85;;;0.10;99.90;;;;;;5102802;28;20097;-65
2022/04/11 02:35:01;;;;;;;8.70;2.05;;;0.10;99.90;;;;;;5088544;28;20093;-65
2022/04/11 02:37:27;;;;;;;5.75;1.80;;;0.00;99.90;;;;;;5087577;28;20078;-65
2022/04/11 02:39:53;;;;;;;3.78;1.77;;;0.00;99.90;;;;;;5087096;28;20102;-65
2022/04/11 02:42:23;;;;;;;6.57;1.98;;;0.00;99.90;;;;;;5086078;28;20036;-65
2022/04/11 02:44:49;;;;;;;2.97;1.80;;;0.00;99.90;;;;;;5087165;28;20375;-65
2022/04/11 02:47:15;;;;;;;3.10;1.88;;;0.00;99.90;;;;;;5089142;28;20073;-66
2022/04/11 02:49:41;;;;;;;6.25;1.98;;;-0.10;99.90;;;;;;5078846;28;20052;-65
2022/04/11 02:52:07;;;;;;;6.28;2.10;;;-0.10;99.90;;;;;;5075632;28;20066;-65
2022/04/11 02:54:32;;;;;;;3.45;1.73;;;-0.10;99.90;;;;;;5086395;28;20043;-66
2022/04/11 02:56:58;;;;;;;10.63;2.45;;;-0.10;99.90;;;;;;5054897;28;20520;-65
2022/04/11 02:59:24;;;;;;;2.55;1.80;;;-0.10;99.90;;;;;;5061960;28;20051;-65
2022/04/11 03:01:49;;;;;;;3.75;1.60;;;-0.20;99.90;;;;;;5095474;28;20052;-66
2022/04/11 03:04:18;;;;;;;4.35;1.92;;;-0.30;99.90;;;;;;5105917;28;20028;-65
2022/04/11 03:06:44;;;;;;;3.83;1.65;;;-0.40;99.90;;;;;;5105256;28;20115;-66
2022/04/11 03:09:10;;;;;;;2.35;1.60;;;-0.40;99.90;;;;;;5094399;28;20047;-65
2022/04/11 03:11:36;;;;;;;2.42;1.70;;;-0.40;99.90;;;;;;5107418;28;20050;-65
2022/04/11 03:14:02;;;;;;;3.38;1.73;;;-0.40;99.90;;;;;;5074998;28;20455;-66
2022/04/11 03:16:28;;;;;;;5.53;2.00;;;-0.30;99.90;;;;;;5082343;28;20044;-66
2022/04/11 03:18:54;;;;;;;16.60;2.92;;;-0.30;99.90;;;;;;5087048;28;20091;-65
2022/04/11 03:21:19;;;;;;;8.43;1.45;;;-0.30;99.90;;;;;;5066985;28;20040;-65
2022/04/11 03:23:46;;;;;;;5.80;2.03;;;-0.30;99.90;;;;;;5104511;28;20050;-65
2022/04/11 03:26:12;;;;;;;1.50;1.40;;;-0.30;99.90;;;;;;5102196;28;20080;-65
2022/04/11 03:28:38;;;;;;;5.65;1.65;;;-0.30;99.90;;;;;;5079397;28;20058;-65
2022/04/11 03:31:04;;;;;;;4.68;1.70;;;-0.30;99.90;;;;;;5085738;28;20043;-65
2022/04/11 03:33:30;;;;;;;4.30;2.00;;;-0.30;99.90;;;;;;5085648;28;20051;-66
2022/04/11 03:35:56;;;;;;;7.40;2.38;;;-0.30;99.90;;;;;;5088453;28;20043;-65
2022/04/11 03:38:22;;;;;;;3.25;1.60;;;-0.30;99.90;;;;;;5105786;28;20043;-66
2022/04/11 03:40:48;;;;;;;3.28;1.45;;;-0.30;99.90;;;;;;5106819;28;20473;-65
2022/04/11 03:43:14;;;;;;;5.03;1.77;;;-0.30;99.90;;;;;;5086388;28;20040;-66
2022/04/11 03:45:39;;;;;;;3.67;1.58;;;-0.30;99.90;;;;;;5090938;28;20486;-66
2022/04/11 03:48:05;;;;;;;4.88;1.75;;;-0.30;99.90;;;;;;5054301;28;20131;-65
2022/04/11 03:50:31;;;;;;;4.78;1.75;;;-0.30;99.90;;;;;;5090590;28;20058;-65
2022/04/11 03:52:57;;;;;;;9.45;1.70;;;-0.40;99.90;;;;;;5054729;28;20039;-66
2022/04/11 03:55:23;;;;;;;5.35;1.52;;;-0.30;99.90;;;;;;5071885;28;20418;-66
2022/04/11 03:57:50;;;;;;;3.97;1.80;;;-0.40;99.90;;;;;;5071888;28;20493;-65
2022/04/11 04:00:16;;;;;;;5.45;1.73;;;-0.40;99.90;;;;;;5037702;28;20047;-65
2022/04/11 04:02:43;;;;;;;4.45;2.17;;;-0.30;99.90;;;;;;5089085;28;20505;-66
2022/04/11 04:05:09;;;;;;;4.30;1.70;;;-0.30;99.90;;;;;;5107892;28;20097;-66
2022/04/11 04:07:37;;;;;;;2.25;1.35;;;-0.20;99.90;;;;;;5075682;28;20051;-65
2022/04/11 04:10:06;;;;;;;5.13;1.85;;;-0.10;99.90;;;;;;5079628;28;20725;-66
2022/04/11 04:12:32;;;;;;;3.33;1.58;;;0.00;99.90;;;;;;5089382;28;20036;-65
2022/04/11 04:14:58;;;;;;;5.47;1.98;;;0.00;99.90;;;;;;5090102;28;20118;-65
2022/04/11 04:17:24;;;;;;;3.70;1.90;;;0.10;99.90;;;;;;5070234;28;20105;-66
2022/04/11 04:19:49;;;;;;;2.85;1.63;;;0.10;99.90;;;;;;5089927;28;20051;-65
2022/04/11 04:22:15;;;;;;;4.28;1.70;;;0.20;99.90;;;;;;5070263;28;20100;-66
2022/04/11 04:24:41;;;;;;;4.97;1.50;;;0.20;99.90;;;;;;5090139;28;20123;-65
2022/04/11 04:27:07;;;;;;;2.55;1.42;;;0.20;99.90;;;;;;5069067;28;20407;-66
2022/04/11 04:29:35;;;;;;;3.05;1.70;;;0.30;99.90;;;;;;5055124;28;20044;-66
2022/04/11 04:32:01;;;;;;;7.97;1.65;;;0.30;99.90;;;;;;5099690;28;20043;-65
2022/04/11 04:34:29;;;;;;;4.88;2.15;;;0.40;99.90;;;;;;5090825;28;20495;-65
2022/04/11 04:36:55;;;;;;;1.52;1.42;;;0.50;99.90;;;;;;5108383;28;20042;-66
2022/04/11 04:39:21;;;;;;;6.93;1.45;;;0.50;99.90;;;;;;5108511;28;20118;-66
2022/04/11 04:41:46;;;;;;;3.45;2.28;;;0.60;99.90;;;;;;5109874;28;20555;-65
2022/04/11 04:44:12;;;;;;;6.43;1.70;;;0.60;99.90;;;;;;5073314;28;20036;-66
2022/04/11 04:46:38;;;;;;;3.25;1.70;;;0.60;99.90;;;;;;5107692;28;20036;-66
2022/04/11 04:49:04;;;;;;;5.35;2.03;;;0.60;99.90;;;;;;5108701;28;20051;-66
2022/04/11 04:51:30;;;;;;;3.45;2.13;;;0.70;99.90;;;;;;5090852;28;20485;-66
2022/04/11 04:53:56;;;;;;;3.03;1.80;;;0.70;99.90;;;;;;5089927;28;20047;-65
2022/04/11 04:56:22;;;;;;;8.55;1.90;;;0.80;99.90;;;;;;5088938;28;20059;-66
2022/04/11 04:58:49;;;;;;;2.38;1.60;;;0.80;99.90;;;;;;5096410;28;20206;-66
2022/04/11 05:01:15;;;;;;;5.22;1.63;;;0.80;99.90;;;;;;5092118;28;20140;-66
2022/04/11 05:03:41;;;;;;;1.80;1.48;;;0.90;99.90;;;;;;5109863;28;20043;-65
2022/04/11 05:06:07;;;;;;;3.47;1.83;;;0.90;99.90;;;;;;5108124;28;20083;-65
2022/04/11 05:08:33;;;;;;;5.05;1.88;;;1.00;99.90;;;;;;5087030;28;20087;-66
2022/04/11 05:11:00;;;;;;;3.35;1.52;;;1.00;99.90;;;;;;5088146;28;20397;-65
2022/04/11 05:13:26;;;;;;;5.25;1.67;;;1.00;99.90;;;;;;5087864;28;20051;-66
2022/04/11 05:15:52;;;;;;;6.63;1.85;;;1.10;99.90;;;;;;5089204;28;20269;-65
2022/04/11 05:18:19;;;;;;;9.15;2.20;;;1.10;99.90;;;;;;5069028;28;20119;-66
2022/04/11 05:20:45;;;;;;;4.60;2.00;;;1.20;99.90;;;;;;5070835;28;20054;-65
2022/04/11 05:23:12;;;;;;;1.70;1.60;;;1.20;99.90;;;;;;5086932;28;20498;-66
2022/04/11 05:25:37;;;;;;;3.67;2.13;;;1.30;99.90;;;;;;5088748;28;20055;-66
2022/04/11 05:28:03;;;;;;;3.72;2.03;;;1.30;99.90;;;;;;5088322;28;20044;-66
2022/04/11 05:30:35;;;;;;;4.85;1.80;;;1.40;99.90;;;;;;5083109;28;20031;-66
2022/04/11 05:33:01;;;;;;;4.07;1.90;;;1.40;99.90;;;;;;5070073;28;20485;-65
2022/04/11 05:35:28;;;;;;;2.45;1.83;;;1.40;99.90;;;;;;5068917;28;20575;-66
2022/04/11 05:37:53;;;;;;;7.13;2.08;;;1.50;99.90;;;;;;5069956;28;20241;-66
2022/04/11 05:40:19;;;;;;;5.80;1.98;;;1.60;99.90;;;;;;5059226;28;20040;-66
2022/04/11 05:42:45;;;;;;;6.03;2.08;;;1.60;99.90;;;;;;5108458;28;20462;-66
2022/04/11 05:45:11;;;;;;;3.13;1.77;;;1.70;99.90;;;;;;5107130;28;20405;-65
2022/04/11 05:47:36;;;;;;;4.25;1.92;;;1.70;99.90;;;;;;5090116;28;20043;-65
2022/04/11 05:50:03;;;;;;;2.30;2.10;;;1.80;99.90;;;;;;5105976;28;20139;-65
2022/04/11 05:52:29;;;;;;;6.25;2.10;;;1.90;99.90;;;;;;5068784;28;20040;-65
2022/04/11 05:54:54;;;;;;;3.25;2.00;;;1.90;99.90;;;;;;5069411;28;20049;-66
2022/04/11 05:57:21;;;;;;;5.38;2.15;;;2.00;99.90;;;;;;5068843;28;20055;-66
2022/04/11 05:59:47;;;;;;;6.63;2.22;;;2.10;99.90;;;;;;5088505;28;20043;-66
2022/04/11 06:02:13;;;;;;;6.88;2.08;;;2.10;99.90;;;;;;5066159;28;20032;-65
2022/04/11 06:04:38;;;;;;;7.20;2.65;;;2.20;99.90;;;;;;5070775;28;20047;-66
2022/04/11 06:07:05;;;;;;;6.25;2.30;;;2.30;99.90;;;;;;5106930;28;20378;-66
2022/04/11 06:09:31;;;;;;;5.95;2.17;;;2.40;99.90;;;;;;5086779;28;20051;-65
2022/04/11 06:11:58;;;;;;;5.50;2.42;;;2.40;99.90;;;;;;5101851;28;20050;-65
2022/04/11 06:14:24;;;;;;;6.95;2.10;;;2.50;99.90;;;;;;5078340;28;20126;-65
2022/04/11 06:16:49;;;;;;;4.07;2.05;;;2.60;99.90;;;;;;5108139;28;20043;-66
2022/04/11 06:19:17;;;;;;;4.22;2.10;;;2.60;99.90;;;;;;5067490;28;20048;-65
2022/04/11 06:21:43;;;;;;;4.25;2.15;;;2.80;99.90;;;;;;5087812;28;20040;-65
2022/04/11 06:24:09;;;;;;;6.07;2.30;;;2.90;99.90;;;;;;5086386;28;20040;-65
2022/04/11 06:26:38;;;;;;;7.15;2.45;;;2.90;99.90;;;;;;5087194;28;20589;-66
2022/04/11 06:29:04;;;;;;;4.47;2.53;;;3.00;99.90;;;;;;5072800;28;20081;-65
2022/04/11 06:31:29;;;;;;;7.22;2.15;;;3.10;99.90;;;;;;5098510;28;20058;-65
2022/04/11 06:33:55;;;;;;;8.35;2.63;;;3.20;99.90;;;;;;5088982;28;20096;-65
2022/04/11 06:36:21;;;;;;;11.07;2.42;;;3.30;99.90;;;;;;5067433;28;20125;-66
2022/04/11 06:38:49;;;;;;;5.85;2.15;;;3.40;99.90;;;;;;5082298;28;20036;-66
2022/04/11 06:41:21;;;;;;;7.82;2.63;;;3.50;99.90;;;;;;5106163;28;20042;-66
2022/04/11 06:43:46;;;;;;;6.40;2.10;;;3.60;99.90;;;;;;5088516;28;20047;-65
2022/04/11 06:46:12;;;;;;;6.25;2.08;;;3.70;99.90;;;;;;5051211;28;20092;-65
2022/04/11 06:48:37;;;;;;;9.10;2.17;;;3.80;99.90;;;;;;5067479;28;20397;-66
2022/04/11 06:51:03;;;;;;;4.63;2.17;;;3.90;99.90;;;;;;5052165;28;20047;-65
2022/04/11 06:53:29;;;;;;;6.88;2.10;;;4.00;99.90;;;;;;5085622;28;20055;-66
2022/04/11 06:55:55;;;;;;;6.60;2.30;;;4.10;99.90;;;;;;5068813;28;20059;-65
2022/04/11 06:58:21;;;;;;;6.15;2.28;;;4.20;99.90;;;;;;5098275;28;20057;-66
2022/04/11 07:00:47;;;;;;;4.38;2.35;;;4.30;99.90;;;;;;5086255;28;20052;-66
2022/04/11 07:03:13;;;;;;;11.32;2.63;;;4.50;99.90;;;;;;5086187;28;20496;-65
2022/04/11 07:05:39;;;;;;;4.10;2.20;;;4.60;99.90;;;;;;5072980;28;20101;-66
2022/04/11 07:08:05;;;;;;;4.05;2.17;;;4.80;99.90;;;;;;5066061;28;20129;-65
2022/04/11 07:10:32;;;;;;;5.10;2.25;;;4.90;99.90;;;;;;5079757;28;20036;-66
2022/04/11 07:12:58;;;;;;;6.25;2.50;;;5.00;99.90;;;;;;5086853;28;20131;-65
2022/04/11 07:15:24;;;;;;;6.75;2.30;;;5.10;99.90;;;;;;5088076;28;20052;-66
2022/04/11 07:17:52;;;;;;;11.70;2.35;;;5.30;99.90;;;;;;5106373;28;20055;-66
2022/04/11 07:20:20;;;;;;;9.77;3.97;;;5.50;99.90;;;;;;5102503;28;20032;-66
2022/04/11 07:22:46;;;;;;;7.55;2.15;;;5.60;99.90;;;;;;5105073;28;20489;-66
2022/04/11 07:25:12;;;;;;;5.93;2.33;;;5.80;99.90;;;;;;5086468;28;20117;-66
2022/04/11 07:27:38;;;;;;;4.30;1.70;;;6.00;99.90;;;;;;5067437;28;20059;-66
2022/04/11 07:30:04;;;;;;;19.48;2.42;;;6.10;99.90;;;;;;5086592;28;20397;-66
2022/04/11 07:32:31;;;;;;;6.18;1.92;;;6.30;99.90;;;;;;5061704;28;20052;-66
2022/04/11 07:34:58;;;;;;;6.30;2.10;;;6.40;99.90;;;;;;5068688;28;20052;-66
2022/04/11 07:37:25;;;;;;;6.85;2.03;;;6.60;99.90;;;;;;5085425;28;20510;-66
2022/04/11 07:39:52;;;;;;;6.05;1.70;;;6.70;99.90;;;;;;5087884;28;20109;-66
2022/04/11 07:42:18;;;;;;;8.65;1.60;;;6.80;99.90;;;;;;5067284;28;20110;-66
2022/04/11 07:44:44;;;;;;;4.32;1.48;;;6.90;99.90;;;;;;5050915;28;20040;-66
2022/04/11 07:47:10;;;;;;;3.80;1.05;;;7.00;99.90;;;;;;5086285;28;20123;-66
2022/04/11 07:49:36;;;;;;;4.45;1.52;;;7.10;99.90;;;;;;5067218;28;20551;-66
2022/04/11 07:52:03;;;;;;;3.90;1.30;;;7.30;99.90;;;;;;5086040;28;20505;-66
2022/04/11 07:54:28;;;;;;;7.53;1.65;;;7.50;99.90;;;;;;5084875;28;20040;-65
2022/04/11 07:56:54;;;;;;;4.85;1.70;;;7.50;99.90;;;;;;5061545;28;20380;-66
2022/04/11 07:59:20;;;;;;;3.60;1.35;;;7.60;99.90;;;;;;5026836;28;20139;-66
2022/04/11 08:01:45;;;;;;;6.93;1.30;;;7.70;99.90;;;;;;5054057;28;20090;-66
2022/04/11 08:04:12;;;;;;;3.78;1.13;;;7.90;99.90;;;;;;5064268;28;20152;-66
2022/04/11 08:06:37;;;;;;;7.47;1.30;;;8.10;99.90;;;;;;5064123;28;20062;-66
2022/04/11 08:09:03;;;;;;;4.65;0.88;;;8.30;99.90;;;;;;5059374;28;20045;-66
2022/04/11 08:11:29;;;;;;;2.78;1.17;;;8.40;99.90;;;;;;5053705;28;20453;-66
2022/04/11 08:13:55;;;;;;;2.00;1.00;;;8.50;99.90;;;;;;5028830;28;20119;-66
2022/04/11 08:16:22;;;;;;;3.63;1.20;;;8.70;99.90;;;;;;5044263;28;20040;-66
2022/04/11 08:18:48;;;;;;;5.13;1.30;;;8.90;99.90;;;;;;5057908;28;20375;-67
2022/04/11 08:21:14;;;;;;;5.07;1.17;;;8.90;99.90;;;;;;5056220;28;20052;-65
2022/04/11 08:23:40;;;;;;;2.85;1.50;;;8.90;99.90;;;;;;5028114;28;20210;-66
2022/04/11 08:26:06;;;;;;;6.20;1.25;;;9.00;98.10;;;;;;5045550;28;20575;-66
2022/04/11 08:28:32;;;;;;;4.18;1.13;;;9.20;99.90;;;;;;5045107;28;20678;-66
2022/04/11 08:30:58;;;;;;;3.30;1.02;;;9.30;99.40;;;;;;5051632;28;20175;-66
2022/04/11 08:33:23;;;;;;;5.05;1.08;;;9.30;97.50;;;;;;5048219;28;20168;-66
2022/04/11 08:35:49;;;;;;;3.05;1.10;;;9.30;93.70;;;;;;5032289;28;20053;-66
2022/04/11 08:38:15;;;;;;;1.52;1.10;;;9.50;98.80;;;;;;5048376;28;20086;-66
2022/04/11 08:40:41;;;;;;;2.90;0.98;;;9.40;94.30;;;;;;5031446;28;20114;-66
2022/04/11 08:43:09;;;;;;;8.88;1.33;;;9.50;94.00;;;;;;5062456;28;20048;-66
2022/04/11 08:45:35;;;;;;;6.45;1.10;;;9.60;93.30;;;;;;5066894;28;20509;-66
2022/04/11 08:48:01;;;;;;;2.72;0.90;;;9.70;93.30;;;;;;5069708;28;20048;-66
2022/04/11 08:50:27;;;;;;;4.10;1.02;;;9.70;85.30;;;;;;5066519;28;20146;-67
2022/04/11 08:52:56;;;;;;;3.38;1.10;;;9.80;93.60;;;;;;5068062;28;20039;-66
2022/04/11 08:55:22;;;;;;;2.83;1.30;;;9.70;86.40;;;;;;5079875;28;20904;-66
2022/04/11 08:57:47;;;;;;;7.53;0.90;;;9.70;92.80;;;;;;5091825;28;20079;-66
2022/04/11 09:00:16;;;;;;;4.20;1.00;;;9.90;91.30;;;;;;5090645;28;20055;-66
2022/04/11 09:02:43;;;;;;;4.32;1.05;;;9.90;90.50;;;;;;5107181;28;20059;-66
2022/04/11 09:05:10;;;;;;;2.15;1.00;;;10.00;80.90;;;;;;5074397;28;20114;-66
2022/04/11 09:07:55;;;;;;;3.53;1.27;;;10.00;85.20;;;;;;5089878;28;20048;-66
2022/04/11 09:10:37;;;;;;;4.60;1.05;;;10.00;87.20;;;;;;5091153;28;20065;-66
2022/04/11 09:13:05;;;;;;;4.55;1.15;;;10.10;94.20;;;;;;5108293;28;20059;-66
2022/04/11 09:15:43;;;;;;;4.60;1.10;;;10.20;92.80;;;;;;5069957;28;20091;-66
2022/04/11 09:18:09;;;;;;;5.15;1.02;;;10.30;75.00;;;;;;5070430;28;20102;-66
2022/04/11 09:20:35;;;;;;;3.72;0.88;;;10.40;79.70;;;;;;5068827;28;20135;-66
2022/04/11 09:23:01;;;;;;;4.00;0.80;;;10.50;81.50;;;;;;5070689;28;20048;-66
2022/04/11 09:25:31;;;;;;;2.90;1.10;;;10.50;74.10;;;;;;5068595;28;20043;-66
2022/04/11 09:28:09;;;;;;;3.45;0.93;;;10.50;90.00;;;;;;5070677;28;20059;-66
2022/04/11 09:30:36;;;;;;;3.67;0.77;;;10.60;54.70;;;;;;5088374;28;20130;-66
2022/04/11 09:33:07;;;;;;;3.55;1.05;;;10.50;62.90;;;;;;5106823;28;20066;-67
2022/04/11 09:35:49;;;;;;;3.05;0.75;;;10.60;64.90;;;;;;5107034;28;20059;-67
2022/04/11 09:38:20;;;;;;;4.72;1.48;;;10.50;51.40;;;;;;5073041;28;20043;-66
2022/04/11 09:40:53;;;;;;;2.40;0.65;;;10.60;70.60;;;;;;5108899;28;20051;-66
2022/04/11 09:43:30;;;;;;;2.15;1.00;;;10.60;67.00;;;;;;5107960;28;20044;-66
2022/04/11 09:46:00;;;;;;;1.80;0.80;;;10.70;69.50;;;;;;5096595;28;20032;-67
2022/04/11 09:48:28;;;;;;;10.60;1.23;;;10.70;61.30;;;;;;5070277;28;20116;-66
2022/04/11 09:50:55;;;;;;;4.82;0.80;;;10.70;57.20;;;;;;5069115;28;20040;-67
2022/04/11 09:53:23;;;;;;;5.00;1.20;;;10.80;70.00;;;;;;5069729;28;20478;-66
2022/04/11 09:55:54;;;;;;;2.17;0.90;;;10.90;55.70;;;;;;5067597;28;20209;-68
2022/04/11 09:58:21;;;;;;;6.00;0.82;;;10.90;51.40;;;;;;5083548;28;20044;-67
2022/04/11 10:00:49;;;;;;;6.25;1.10;;;10.70;54.30;;;;;;5083490;28;20066;-67
2022/04/11 10:03:16;;;;;;;4.05;1.00;;;10.80;75.40;;;;;;5067061;28;20052;-67
2022/04/11 10:05:42;;;;;;;2.15;0.75;;;10.90;45.70;;;;;;5084030;28;20422;-67
2022/04/11 10:08:10;;;;;;;1.33;0.85;;;11.00;39.20;;;;;;5081964;28;20107;-67
2022/04/11 10:10:41;;;;;;;6.55;1.10;;;11.00;43.50;;;;;;5085004;28;20032;-67
2022/04/11 10:13:12;;;;;;;6.25;1.10;;;11.20;55.90;;;;;;5080966;28;20051;-66
2022/04/11 10:15:38;;;;;;;2.35;0.95;;;11.20;51.80;;;;;;5066052;28;20049;-67
2022/04/11 10:18:06;;;;;;;3.85;1.10;;;11.20;41.50;;;;;;5081750;28;20040;-66
2022/04/11 10:20:37;;;;;;;3.50;1.00;;;11.10;49.40;;;;;;5083001;28;20071;-66
2022/04/11 10:23:08;;;;;;;2.75;0.65;;;11.20;61.80;;;;;;5085670;28;20056;-66
2022/04/11 10:25:44;;;;;;;5.18;1.27;;;11.20;48.60;;;;;;5083530;28;20115;-67
2022/04/11 10:28:25;;;;;;;5.03;1.30;;;11.20;39.30;;;;;;5080734;28;20205;-67
2022/04/11 10:31:11;;;;;;;2.67;0.93;;;11.30;60.00;;;;;;5065600;28;20490;-67
2022/04/11 10:33:47;;;;;;;3.28;1.45;;;11.50;54.80;;;;;;5081668;28;20044;-67
2022/04/11 10:36:36;;;;;;;1.95;1.08;;;11.50;66.00;;;;;;5083569;28;20049;-67
2022/04/11 10:39:22;;;;;;;3.67;1.25;;;11.50;48.50;;;;;;5080389;28;20056;-67
2022/04/11 10:41:58;;;;;;;3.20;0.93;;;11.50;50.40;;;;;;5082726;28;20048;-67
2022/04/11 10:44:50;;;;;;;7.53;1.05;;;11.70;40.10;;;;;;5085340;28;20090;-66
2022/04/11 10:47:16;;;;;;;2.47;1.05;;;11.70;50.90;;;;;;5081595;28;20051;-66
2022/04/11 10:49:51;;;;;;;6.97;1.15;;;11.60;39.40;;;;;;5080437;28;20089;-67
2022/04/11 10:52:34;;;;;;;4.28;1.00;;;11.60;54.60;;;;;;5084074;28;20040;-66
2022/04/11 10:55:14;;;;;;;3.40;1.02;;;11.70;55.70;;;;;;5088564;28;20051;-67
2022/04/11 10:57:46;;;;;;;2.45;1.00;;;11.70;60.60;;;;;;5106951;27;20066;-67
2022/04/11 11:00:19;;;;;;;4.10;1.55;;;11.70;50.50;;;;;;5082468;28;20040;-67
2022/04/11 11:02:57;;;;;;;2.25;0.93;;;11.70;65.90;;;;;;5106931;28;20077;-67
2022/04/11 11:05:37;;;;;;;6.15;1.10;;;11.70;48.10;;;;;;5105316;27;20059;-67
2022/04/11 11:08:09;;;;;;;3.17;1.13;;;11.60;42.80;;;;;;5106022;28;20048;-66
2022/04/11 11:10:38;;;;;;;4.90;0.95;;;11.80;48.00;;;;;;5102825;28;20501;-68
2022/04/11 11:13:30;;;;;;;2.80;1.33;;;11.90;62.60;;;;;;5100551;28;20063;-67
2022/04/11 11:16:10;;;;;;;2.85;1.00;;;12.10;45.90;;;;;;5106164;28;20036;-66
2022/04/11 11:18:54;;;;;;;;;;;12.20;42.60;;;;;;5084374;28;20093;-67
2022/04/11 11:21:47;;;;;;;1.55;1.00;;;12.20;38.30;;;;;;5083249;28;19915;-67
2022/04/11 11:24:32;;;;;;;3.22;1.08;;;12.20;26.30;;;;;;5106966;28;20043;-67
2022/04/11 11:27:04;;;;;;;2.53;1.10;;;12.30;38.50;;;;;;5096528;28;20073;-67
2022/04/11 11:29:43;;;;;;;7.40;1.30;;;12.20;33.70;;;;;;5070403;28;20400;-67
2022/04/11 11:32:12;;;;;;;3.08;1.35;;;12.20;43.70;;;;;;5094637;28;20440;-67
2022/04/11 11:34:39;;;;;;;1.50;1.00;;;12.20;35.80;;;;;;5084377;28;20059;-67
2022/04/11 11:37:11;;;;;;;1.88;1.23;;;12.30;36.30;;;;;;5086538;28;20502;-67
2022/04/11 11:39:39;;;;;;;4.68;1.25;;;12.20;34.00;;;;;;4988292;28;20053;-67
2022/04/11 11:42:09;;;;;;;7.07;1.90;;;12.10;25.00;;;;;;5010683;28;20381;-67
2022/04/11 11:44:46;;;;;;;7.97;1.27;;;12.00;26.60;;;;;;5008182;28;20470;-67
2022/04/11 11:47:12;;;;;;;2.65;1.30;;;12.10;31.60;;;;;;5014516;28;20072;-67
2022/04/11 11:49:40;;;;;;;5.38;1.20;;;12.10;41.30;;;;;;5007071;28;20501;-67
2022/04/11 11:52:16;;;;;;;3.92;1.50;;;12.20;33.70;;;;;;5003678;28;20085;-67
2022/04/11 11:54:47;;;;;;;6.47;1.25;;;12.40;41.30;;;;;;4988999;28;20508;-67
2022/04/11 11:57:27;;;;;;;3.08;1.08;;;12.50;37.40;;;;;;5004086;28;20061;-67
2022/04/11 12:00:02;;;;;;;2.67;1.10;;;12.60;42.20;;;;;;5021611;28;20451;-67
2022/04/11 12:05:30;;;;;;;2.83;1.42;;;12.50;32.10;;;;;;5008319;28;20057;-67
2022/04/11 12:08:03;;;;;;;3.33;1.00;;;12.50;34.70;;;;;;5019703;28;20121;-67
2022/04/11 12:10:30;;;;;;;4.38;0.90;;;12.50;39.70;;;;;;5025289;28;20041;-67
2022/04/11 12:12:56;;;;;;;5.63;1.23;;;12.30;53.40;;;;;;5028004;28;20088;-67
2022/04/11 12:15:22;;;;;;;3.20;0.90;;;12.30;35.00;;;;;;5029214;28;20076;-67
2022/04/11 12:17:59;;;;;;;3.10;1.02;;;12.30;48.30;;;;;;5028609;28;20084;-67
2022/04/11 12:20:25;;;;;;;1.98;0.93;;;12.50;29.40;;;;;;5020510;28;20088;-67
2022/04/11 12:23:13;;;;;;;4.28;1.20;;;12.60;43.60;;;;;;5007156;28;20117;-67
2022/04/11 12:25:50;;;;;;;2.35;1.13;;;12.60;23.00;;;;;;5008135;28;20125;-67
2022/04/11 12:28:16;;;;;;;1.65;1.10;;;12.60;48.60;;;;;;5010149;28;20046;-67
2022/04/11 12:30:46;;;;;;;2.83;1.00;;;12.70;35.50;;;;;;5013395;28;20083;-67
2022/04/11 12:33:40;;;;;;;3.10;1.13;;;12.60;29.20;;;;;;5008406;28;20053;-67
2022/04/11 12:36:08;;;;;;;3.90;1.25;;;12.30;46.90;;;;;;5007840;28;20042;-67
2022/04/11 12:38:41;;;;;;;6.22;1.42;;;12.50;31.20;;;;;;5007658;28;20045;-67
2022/04/11 12:41:09;;;;;;;3.30;1.25;;;12.50;47.00;;;;;;5010092;28;20085;-66
2022/04/11 12:43:58;;;;;;;2.75;1.15;;;12.60;32.30;;;;;;5007744;28;20546;-67
2022/04/11 12:46:24;;;;;;;1.55;0.80;;;12.70;37.70;;;;;;5009541;28;20042;-67
2022/04/11 12:48:56;;;;;;;3.58;1.55;;;12.70;37.90;;;;;;5016047;28;20076;-67
2022/04/11 12:51:23;;;;;;;2.65;1.00;;;12.80;45.10;;;;;;5010314;28;20466;-67
2022/04/11 12:53:49;;;;;;;2.75;1.20;;;13.00;38.50;;;;;;5027853;28;20045;-66
2022/04/11 12:56:15;;;;;;;2.72;0.93;;;13.00;28.30;;;;;;5026659;28;20068;-67
2022/04/11 12:58:41;;;;;;;2.03;1.00;;;13.10;28.10;;;;;;5023774;28;20123;-67
2022/04/11 13:01:07;;;;;;;2.53;0.80;;;13.00;25.50;;;;;;5007024;28;20053;-67